sensor_id;sensor_type;location;lat;lon;timestamp;P1;durP1;ratioP1;P2;durP2;ratioP2
68475;SDS011;55464;48.266;14.188;2022-11-23T00:01:28;8.23;;;5.43;;
68475;SDS011;55464;48.266;14.188;2022-11-23T00:03:56;8.32;;;4.90;;
68475;SDS011;55464;48.266;14.188;2022-11-23T00:06:23;6.38;;;4.97;;
68475;SDS011;55464;48.266;14.188;2022-11-23T00:08:51;7.68;;;5.25;;
68475;SDS011;55464;48.266;14.188;2022-11-23T00:11:18;8.10;;;5.38;;
68475;SDS011;55464;48.266;14.188;2022-11-23T00:13:45;8.23;;;4.75;;
68475;SDS011;55464;48.266;14.188;2022-11-23T00:16:15;7.40;;;4.85;;
68475;SDS011;55464;48.266;14.188;2022-11-23T00:18:51;6.57;;;4.85;;
68475;SDS011;55464;48.266;14.188;2022-11-23T00:21:21;7.55;;;4.72;;
68475;SDS011;55464;48.266;14.188;2022-11-23T00:23:47;8.25;;;5.35;;
68475;SDS011;55464;48.266;14.188;2022-11-23T00:26:14;8.30;;;5.43;;
68475;SDS011;55464;48.266;14.188;2022-11-23T00:28:41;9.30;;;5.57;;
68475;SDS011;55464;48.266;14.188;2022-11-23T00:31:07;8.20;;;5.30;;
68475;SDS011;55464;48.266;14.188;2022-11-23T00:33:34;8.63;;;5.50;;
68475;SDS011;55464;48.266;14.188;2022-11-23T00:36:01;7.70;;;6.03;;
68475;SDS011;55464;48.266;14.188;2022-11-23T00:38:35;8.38;;;5.40;;
68475;SDS011;55464;48.266;14.188;2022-11-23T00:41:11;5.38;;;4.32;;
68475;SDS011;55464;48.266;14.188;2022-11-23T00:43:39;9.75;;;6.10;;
68475;SDS011;55464;48.266;14.188;2022-11-23T00:48:41;7.60;;;5.20;;
68475;SDS011;55464;48.266;14.188;2022-11-23T00:51:09;8.48;;;6.00;;
68475;SDS011;55464;48.266;14.188;2022-11-23T00:53:36;8.32;;;5.57;;
68475;SDS011;55464;48.266;14.188;2022-11-23T00:56:02;9.10;;;6.00;;
68475;SDS011;55464;48.266;14.188;2022-11-23T00:58:28;7.75;;;5.60;;
68475;SDS011;55464;48.266;14.188;2022-11-23T01:01:10;8.50;;;5.00;;
68475;SDS011;55464;48.266;14.188;2022-11-23T01:03:38;8.32;;;5.50;;
68475;SDS011;55464;48.266;14.188;2022-11-23T01:06:25;8.80;;;5.60;;
68475;SDS011;55464;48.266;14.188;2022-11-23T01:09:02;10.90;;;6.65;;
68475;SDS011;55464;48.266;14.188;2022-11-23T01:11:30;12.77;;;6.80;;
68475;SDS011;55464;48.266;14.188;2022-11-23T01:13:56;13.75;;;7.28;;
68475;SDS011;55464;48.266;14.188;2022-11-23T01:16:29;13.55;;;7.40;;
68475;SDS011;55464;48.266;14.188;2022-11-23T01:18:57;14.15;;;7.10;;
68475;SDS011;55464;48.266;14.188;2022-11-23T01:21:30;10.95;;;6.95;;
68475;SDS011;55464;48.266;14.188;2022-11-23T01:23:57;13.07;;;7.38;;
68475;SDS011;55464;48.266;14.188;2022-11-23T01:26:23;14.07;;;7.47;;
68475;SDS011;55464;48.266;14.188;2022-11-23T01:28:49;13.52;;;7.85;;
68475;SDS011;55464;48.266;14.188;2022-11-23T01:31:21;12.43;;;7.10;;
68475;SDS011;55464;48.266;14.188;2022-11-23T01:33:54;14.55;;;7.13;;
68475;SDS011;55464;48.266;14.188;2022-11-23T01:36:23;14.05;;;7.22;;
68475;SDS011;55464;48.266;14.188;2022-11-23T01:38:56;13.30;;;6.68;;
68475;SDS011;55464;48.266;14.188;2022-11-23T01:41:30;13.70;;;7.88;;
68475;SDS011;55464;48.266;14.188;2022-11-23T01:44:18;12.32;;;7.55;;
68475;SDS011;55464;48.266;14.188;2022-11-23T01:46:50;12.32;;;6.75;;
68475;SDS011;55464;48.266;14.188;2022-11-23T01:49:16;13.73;;;8.80;;
68475;SDS011;55464;48.266;14.188;2022-11-23T01:51:43;14.85;;;9.13;;
68475;SDS011;55464;48.266;14.188;2022-11-23T01:54:23;9.83;;;6.93;;
68475;SDS011;55464;48.266;14.188;2022-11-23T01:57:05;12.00;;;7.13;;
68475;SDS011;55464;48.266;14.188;2022-11-23T01:59:41;13.35;;;7.45;;
68475;SDS011;55464;48.266;14.188;2022-11-23T02:02:11;10.35;;;5.53;;
68475;SDS011;55464;48.266;14.188;2022-11-23T02:04:39;7.60;;;4.85;;
68475;SDS011;55464;48.266;14.188;2022-11-23T02:07:07;7.65;;;5.10;;
68475;SDS011;55464;48.266;14.188;2022-11-23T02:09:40;8.25;;;5.68;;
68475;SDS011;55464;48.266;14.188;2022-11-23T02:12:10;8.73;;;5.63;;
68475;SDS011;55464;48.266;14.188;2022-11-23T02:14:36;7.63;;;5.47;;
68475;SDS011;55464;48.266;14.188;2022-11-23T02:17:02;7.25;;;5.03;;
68475;SDS011;55464;48.266;14.188;2022-11-23T02:19:51;7.75;;;6.00;;
68475;SDS011;55464;48.266;14.188;2022-11-23T02:22:21;9.85;;;6.38;;
68475;SDS011;55464;48.266;14.188;2022-11-23T02:25:17;13.88;;;8.55;;
68475;SDS011;55464;48.266;14.188;2022-11-23T02:28:24;14.60;;;8.38;;
68475;SDS011;55464;48.266;14.188;2022-11-23T02:31:04;13.70;;;9.25;;
68475;SDS011;55464;48.266;14.188;2022-11-23T02:33:29;12.35;;;7.95;;
68475;SDS011;55464;48.266;14.188;2022-11-23T02:35:56;12.07;;;7.35;;
68475;SDS011;55464;48.266;14.188;2022-11-23T02:38:27;11.35;;;6.60;;
68475;SDS011;55464;48.266;14.188;2022-11-23T02:41:01;10.93;;;6.95;;
68475;SDS011;55464;48.266;14.188;2022-11-23T02:43:27;13.15;;;6.43;;
68475;SDS011;55464;48.266;14.188;2022-11-23T02:45:57;9.07;;;5.40;;
68475;SDS011;55464;48.266;14.188;2022-11-23T02:48:31;10.13;;;5.72;;
68475;SDS011;55464;48.266;14.188;2022-11-23T02:50:57;9.75;;;6.43;;
68475;SDS011;55464;48.266;14.188;2022-11-23T02:53:23;7.97;;;5.32;;
68475;SDS011;55464;48.266;14.188;2022-11-23T02:55:50;9.55;;;5.38;;
68475;SDS011;55464;48.266;14.188;2022-11-23T02:58:16;8.32;;;5.40;;
68475;SDS011;55464;48.266;14.188;2022-11-23T03:00:45;6.35;;;5.03;;
68475;SDS011;55464;48.266;14.188;2022-11-23T03:03:10;6.72;;;5.20;;
68475;SDS011;55464;48.266;14.188;2022-11-23T03:05:42;6.10;;;4.68;;
68475;SDS011;55464;48.266;14.188;2022-11-23T03:08:11;5.43;;;4.65;;
68475;SDS011;55464;48.266;14.188;2022-11-23T03:10:40;6.45;;;5.03;;
68475;SDS011;55464;48.266;14.188;2022-11-23T03:13:06;6.45;;;4.72;;
68475;SDS011;55464;48.266;14.188;2022-11-23T03:15:32;8.43;;;5.70;;
68475;SDS011;55464;48.266;14.188;2022-11-23T03:17:57;6.10;;;5.13;;
68475;SDS011;55464;48.266;14.188;2022-11-23T03:20:23;6.45;;;4.95;;
68475;SDS011;55464;48.266;14.188;2022-11-23T03:22:49;7.70;;;5.35;;
68475;SDS011;55464;48.266;14.188;2022-11-23T03:25:20;7.22;;;5.30;;
68475;SDS011;55464;48.266;14.188;2022-11-23T03:27:53;8.30;;;5.13;;
68475;SDS011;55464;48.266;14.188;2022-11-23T03:30:19;8.27;;;5.72;;
68475;SDS011;55464;48.266;14.188;2022-11-23T03:32:45;9.55;;;6.55;;
68475;SDS011;55464;48.266;14.188;2022-11-23T03:35:10;9.18;;;6.10;;
68475;SDS011;55464;48.266;14.188;2022-11-23T03:37:36;9.45;;;6.38;;
68475;SDS011;55464;48.266;14.188;2022-11-23T03:40:05;8.50;;;6.10;;
68475;SDS011;55464;48.266;14.188;2022-11-23T03:42:34;9.50;;;6.03;;
68475;SDS011;55464;48.266;14.188;2022-11-23T03:45:00;9.85;;;6.78;;
68475;SDS011;55464;48.266;14.188;2022-11-23T03:47:25;11.20;;;7.25;;
68475;SDS011;55464;48.266;14.188;2022-11-23T03:49:51;12.07;;;7.25;;
68475;SDS011;55464;48.266;14.188;2022-11-23T03:52:23;10.40;;;7.30;;
68475;SDS011;55464;48.266;14.188;2022-11-23T03:54:48;10.48;;;7.07;;
68475;SDS011;55464;48.266;14.188;2022-11-23T03:57:14;9.20;;;6.75;;
68475;SDS011;55464;48.266;14.188;2022-11-23T03:59:42;8.68;;;6.40;;
68475;SDS011;55464;48.266;14.188;2022-11-23T04:02:08;9.43;;;6.32;;
68475;SDS011;55464;48.266;14.188;2022-11-23T04:04:34;9.98;;;5.88;;
68475;SDS011;55464;48.266;14.188;2022-11-23T04:07:00;8.13;;;6.30;;
68475;SDS011;55464;48.266;14.188;2022-11-23T04:09:27;10.32;;;6.50;;
68475;SDS011;55464;48.266;14.188;2022-11-23T04:11:52;9.07;;;5.88;;
68475;SDS011;55464;48.266;14.188;2022-11-23T04:14:18;7.13;;;5.18;;
68475;SDS011;55464;48.266;14.188;2022-11-23T04:16:44;8.65;;;5.68;;
68475;SDS011;55464;48.266;14.188;2022-11-23T04:19:10;7.05;;;5.43;;
68475;SDS011;55464;48.266;14.188;2022-11-23T04:21:35;7.35;;;5.95;;
68475;SDS011;55464;48.266;14.188;2022-11-23T04:24:07;8.32;;;6.10;;
68475;SDS011;55464;48.266;14.188;2022-11-23T04:26:33;9.93;;;6.95;;
68475;SDS011;55464;48.266;14.188;2022-11-23T04:28:58;12.73;;;6.72;;
68475;SDS011;55464;48.266;14.188;2022-11-23T04:31:24;11.38;;;7.00;;
68475;SDS011;55464;48.266;14.188;2022-11-23T04:33:50;17.08;;;9.05;;
68475;SDS011;55464;48.266;14.188;2022-11-23T04:36:17;14.82;;;9.00;;
68475;SDS011;55464;48.266;14.188;2022-11-23T04:38:45;10.93;;;6.97;;
68475;SDS011;55464;48.266;14.188;2022-11-23T04:43:49;10.52;;;6.05;;
68475;SDS011;55464;48.266;14.188;2022-11-23T04:46:16;8.57;;;6.45;;
68475;SDS011;55464;48.266;14.188;2022-11-23T04:48:42;7.50;;;5.80;;
68475;SDS011;55464;48.266;14.188;2022-11-23T04:51:08;8.32;;;5.55;;
68475;SDS011;55464;48.266;14.188;2022-11-23T04:53:43;7.18;;;5.32;;
68475;SDS011;55464;48.266;14.188;2022-11-23T04:56:09;8.60;;;5.88;;
68475;SDS011;55464;48.266;14.188;2022-11-23T04:58:34;8.77;;;5.90;;
68475;SDS011;55464;48.266;14.188;2022-11-23T05:01:03;9.85;;;6.50;;
68475;SDS011;55464;48.266;14.188;2022-11-23T05:03:29;10.10;;;6.30;;
68475;SDS011;55464;48.266;14.188;2022-11-23T05:05:58;9.80;;;6.50;;
68475;SDS011;55464;48.266;14.188;2022-11-23T05:08:24;11.07;;;6.77;;
68475;SDS011;55464;48.266;14.188;2022-11-23T05:10:53;15.73;;;9.48;;
68475;SDS011;55464;48.266;14.188;2022-11-23T05:13:36;11.27;;;7.38;;
68475;SDS011;55464;48.266;14.188;2022-11-23T05:16:04;11.50;;;7.28;;
68475;SDS011;55464;48.266;14.188;2022-11-23T05:18:32;16.48;;;9.75;;
68475;SDS011;55464;48.266;14.188;2022-11-23T05:20:57;14.77;;;8.95;;
68475;SDS011;55464;48.266;14.188;2022-11-23T05:23:25;12.32;;;8.07;;
68475;SDS011;55464;48.266;14.188;2022-11-23T05:25:51;15.27;;;8.32;;
68475;SDS011;55464;48.266;14.188;2022-11-23T05:28:18;11.93;;;7.53;;
68475;SDS011;55464;48.266;14.188;2022-11-23T05:31:02;11.75;;;7.50;;
68475;SDS011;55464;48.266;14.188;2022-11-23T05:33:28;14.50;;;8.70;;
68475;SDS011;55464;48.266;14.188;2022-11-23T05:35:53;11.40;;;7.65;;
68475;SDS011;55464;48.266;14.188;2022-11-23T05:38:22;13.05;;;8.25;;
68475;SDS011;55464;48.266;14.188;2022-11-23T05:40:49;12.02;;;7.70;;
68475;SDS011;55464;48.266;14.188;2022-11-23T05:43:20;12.60;;;7.90;;
68475;SDS011;55464;48.266;14.188;2022-11-23T05:45:46;10.02;;;6.63;;
68475;SDS011;55464;48.266;14.188;2022-11-23T05:48:12;12.38;;;7.20;;
68475;SDS011;55464;48.266;14.188;2022-11-23T05:50:40;11.05;;;6.82;;
68475;SDS011;55464;48.266;14.188;2022-11-23T05:53:05;11.43;;;6.70;;
68475;SDS011;55464;48.266;14.188;2022-11-23T05:55:35;13.65;;;7.30;;
68475;SDS011;55464;48.266;14.188;2022-11-23T05:58:04;13.23;;;7.45;;
68475;SDS011;55464;48.266;14.188;2022-11-23T06:00:36;10.27;;;6.72;;
68475;SDS011;55464;48.266;14.188;2022-11-23T06:03:05;8.82;;;6.35;;
68475;SDS011;55464;48.266;14.188;2022-11-23T06:05:31;8.77;;;6.18;;
68475;SDS011;55464;48.266;14.188;2022-11-23T06:07:57;11.43;;;6.63;;
68475;SDS011;55464;48.266;14.188;2022-11-23T06:10:22;11.45;;;6.63;;
68475;SDS011;55464;48.266;14.188;2022-11-23T06:12:51;9.80;;;6.13;;
68475;SDS011;55464;48.266;14.188;2022-11-23T06:15:18;11.70;;;6.90;;
68475;SDS011;55464;48.266;14.188;2022-11-23T06:17:47;11.27;;;7.47;;
68475;SDS011;55464;48.266;14.188;2022-11-23T06:20:12;11.88;;;7.15;;
68475;SDS011;55464;48.266;14.188;2022-11-23T06:22:38;10.38;;;6.93;;
68475;SDS011;55464;48.266;14.188;2022-11-23T06:25:07;11.48;;;7.40;;
68475;SDS011;55464;48.266;14.188;2022-11-23T06:27:37;11.50;;;7.63;;
68475;SDS011;55464;48.266;14.188;2022-11-23T06:30:03;14.48;;;7.93;;
68475;SDS011;55464;48.266;14.188;2022-11-23T06:32:31;12.27;;;7.57;;
68475;SDS011;55464;48.266;14.188;2022-11-23T06:34:57;12.27;;;8.25;;
68475;SDS011;55464;48.266;14.188;2022-11-23T06:37:27;14.68;;;6.88;;
68475;SDS011;55464;48.266;14.188;2022-11-23T06:39:53;10.68;;;6.43;;
68475;SDS011;55464;48.266;14.188;2022-11-23T06:42:19;10.15;;;6.63;;
68475;SDS011;55464;48.266;14.188;2022-11-23T06:44:49;12.30;;;7.95;;
68475;SDS011;55464;48.266;14.188;2022-11-23T06:47:31;14.63;;;8.38;;
68475;SDS011;55464;48.266;14.188;2022-11-23T06:49:57;11.02;;;6.28;;
68475;SDS011;55464;48.266;14.188;2022-11-23T06:52:29;16.63;;;7.43;;
68475;SDS011;55464;48.266;14.188;2022-11-23T06:54:58;15.88;;;8.68;;
68475;SDS011;55464;48.266;14.188;2022-11-23T06:57:24;12.55;;;8.18;;
68475;SDS011;55464;48.266;14.188;2022-11-23T06:59:49;14.65;;;7.80;;
68475;SDS011;55464;48.266;14.188;2022-11-23T07:02:15;14.85;;;7.72;;
68475;SDS011;55464;48.266;14.188;2022-11-23T07:04:43;12.82;;;7.63;;
68475;SDS011;55464;48.266;14.188;2022-11-23T07:07:09;14.13;;;8.65;;
68475;SDS011;55464;48.266;14.188;2022-11-23T07:09:38;12.73;;;7.73;;
68475;SDS011;55464;48.266;14.188;2022-11-23T07:12:04;12.73;;;7.63;;
68475;SDS011;55464;48.266;14.188;2022-11-23T07:14:31;14.23;;;8.20;;
68475;SDS011;55464;48.266;14.188;2022-11-23T07:16:57;15.18;;;8.82;;
68475;SDS011;55464;48.266;14.188;2022-11-23T07:19:28;15.93;;;8.18;;
68475;SDS011;55464;48.266;14.188;2022-11-23T07:21:54;13.82;;;7.68;;
68475;SDS011;55464;48.266;14.188;2022-11-23T07:24:19;12.43;;;8.02;;
68475;SDS011;55464;48.266;14.188;2022-11-23T07:26:45;14.68;;;7.85;;
68475;SDS011;55464;48.266;14.188;2022-11-23T07:29:18;13.10;;;7.32;;
68475;SDS011;55464;48.266;14.188;2022-11-23T07:31:44;14.90;;;8.48;;
68475;SDS011;55464;48.266;14.188;2022-11-23T07:34:10;16.13;;;9.27;;
68475;SDS011;55464;48.266;14.188;2022-11-23T07:36:58;14.20;;;8.13;;
68475;SDS011;55464;48.266;14.188;2022-11-23T07:39:29;11.63;;;7.10;;
68475;SDS011;55464;48.266;14.188;2022-11-23T07:41:55;14.45;;;8.05;;
68475;SDS011;55464;48.266;14.188;2022-11-23T07:44:26;13.10;;;8.00;;
68475;SDS011;55464;48.266;14.188;2022-11-23T07:46:52;11.65;;;7.18;;
68475;SDS011;55464;48.266;14.188;2022-11-23T07:49:34;11.18;;;7.45;;
68475;SDS011;55464;48.266;14.188;2022-11-23T07:52:03;11.93;;;8.20;;
68475;SDS011;55464;48.266;14.188;2022-11-23T07:54:28;11.13;;;7.13;;
68475;SDS011;55464;48.266;14.188;2022-11-23T07:57:00;10.77;;;7.13;;
68475;SDS011;55464;48.266;14.188;2022-11-23T07:59:30;23.50;;;12.73;;
68475;SDS011;55464;48.266;14.188;2022-11-23T08:01:58;58.22;;;31.60;;
68475;SDS011;55464;48.266;14.188;2022-11-23T08:04:24;22.90;;;12.75;;
68475;SDS011;55464;48.266;14.188;2022-11-23T08:06:51;19.27;;;10.73;;
68475;SDS011;55464;48.266;14.188;2022-11-23T08:09:19;22.90;;;12.02;;
68475;SDS011;55464;48.266;14.188;2022-11-23T08:11:45;25.63;;;14.75;;
68475;SDS011;55464;48.266;14.188;2022-11-23T08:14:15;35.17;;;17.20;;
68475;SDS011;55464;48.266;14.188;2022-11-23T08:16:41;27.30;;;13.05;;
68475;SDS011;55464;48.266;14.188;2022-11-23T08:19:06;26.02;;;13.55;;
68475;SDS011;55464;48.266;14.188;2022-11-23T08:21:32;13.27;;;8.57;;
68475;SDS011;55464;48.266;14.188;2022-11-23T08:23:58;9.32;;;6.75;;
68475;SDS011;55464;48.266;14.188;2022-11-23T08:26:24;8.63;;;6.20;;
68475;SDS011;55464;48.266;14.188;2022-11-23T08:28:49;10.35;;;6.38;;
68475;SDS011;55464;48.266;14.188;2022-11-23T08:31:16;8.25;;;6.20;;
68475;SDS011;55464;48.266;14.188;2022-11-23T08:33:42;13.02;;;7.10;;
68475;SDS011;55464;48.266;14.188;2022-11-23T08:36:08;14.05;;;7.88;;
68475;SDS011;55464;48.266;14.188;2022-11-23T08:38:34;11.30;;;7.35;;
68475;SDS011;55464;48.266;14.188;2022-11-23T08:41:00;11.77;;;7.40;;
68475;SDS011;55464;48.266;14.188;2022-11-23T08:43:29;12.32;;;7.72;;
68475;SDS011;55464;48.266;14.188;2022-11-23T08:45:56;10.73;;;7.18;;
68475;SDS011;55464;48.266;14.188;2022-11-23T08:48:26;11.38;;;7.13;;
68475;SDS011;55464;48.266;14.188;2022-11-23T08:53:22;10.95;;;7.60;;
68475;SDS011;55464;48.266;14.188;2022-11-23T08:55:48;11.48;;;7.53;;
68475;SDS011;55464;48.266;14.188;2022-11-23T08:58:16;10.55;;;7.50;;
68475;SDS011;55464;48.266;14.188;2022-11-23T09:00:48;11.55;;;8.07;;
68475;SDS011;55464;48.266;14.188;2022-11-23T09:03:14;10.52;;;7.53;;
68475;SDS011;55464;48.266;14.188;2022-11-23T09:05:43;11.45;;;7.18;;
68475;SDS011;55464;48.266;14.188;2022-11-23T09:08:28;8.77;;;6.72;;
68475;SDS011;55464;48.266;14.188;2022-11-23T09:11:22;11.77;;;7.13;;
68475;SDS011;55464;48.266;14.188;2022-11-23T09:13:48;9.57;;;7.10;;
68475;SDS011;55464;48.266;14.188;2022-11-23T09:16:16;13.55;;;8.00;;
68475;SDS011;55464;48.266;14.188;2022-11-23T09:18:42;11.90;;;7.97;;
68475;SDS011;55464;48.266;14.188;2022-11-23T09:21:09;9.93;;;7.45;;
68475;SDS011;55464;48.266;14.188;2022-11-23T09:23:35;12.20;;;7.25;;
68475;SDS011;55464;48.266;14.188;2022-11-23T09:26:01;9.35;;;6.93;;
68475;SDS011;55464;48.266;14.188;2022-11-23T09:28:28;10.23;;;7.80;;
68475;SDS011;55464;48.266;14.188;2022-11-23T09:30:54;8.02;;;6.40;;
68475;SDS011;55464;48.266;14.188;2022-11-23T09:33:21;9.85;;;7.18;;
68475;SDS011;55464;48.266;14.188;2022-11-23T09:35:55;8.50;;;6.50;;
68475;SDS011;55464;48.266;14.188;2022-11-23T09:38:24;8.18;;;6.63;;
68475;SDS011;55464;48.266;14.188;2022-11-23T09:46:53;9.05;;;7.25;;
68475;SDS011;55464;48.266;14.188;2022-11-23T09:49:30;12.45;;;8.15;;
68475;SDS011;55464;48.266;14.188;2022-11-23T09:52:07;9.70;;;7.53;;
68475;SDS011;55464;48.266;14.188;2022-11-23T09:54:43;10.18;;;7.85;;
68475;SDS011;55464;48.266;14.188;2022-11-23T09:57:11;13.77;;;8.18;;
68475;SDS011;55464;48.266;14.188;2022-11-23T10:02:20;12.95;;;8.63;;
68475;SDS011;55464;48.266;14.188;2022-11-23T10:04:47;11.27;;;8.25;;
68475;SDS011;55464;48.266;14.188;2022-11-23T10:12:29;9.55;;;7.03;;
68475;SDS011;55464;48.266;14.188;2022-11-23T10:15:26;10.50;;;7.72;;
68475;SDS011;55464;48.266;14.188;2022-11-23T10:18:02;10.70;;;7.53;;
68475;SDS011;55464;48.266;14.188;2022-11-23T10:23:10;9.52;;;7.45;;
68475;SDS011;55464;48.266;14.188;2022-11-23T10:25:45;9.48;;;7.25;;
68475;SDS011;55464;48.266;14.188;2022-11-23T10:28:35;9.57;;;6.60;;
68475;SDS011;55464;48.266;14.188;2022-11-23T10:31:11;7.60;;;5.80;;
68475;SDS011;55464;48.266;14.188;2022-11-23T10:34:01;7.18;;;5.72;;
68475;SDS011;55464;48.266;14.188;2022-11-23T10:36:37;7.93;;;5.95;;
68475;SDS011;55464;48.266;14.188;2022-11-23T10:39:11;8.18;;;5.68;;
68475;SDS011;55464;48.266;14.188;2022-11-23T10:41:58;8.05;;;5.82;;
68475;SDS011;55464;48.266;14.188;2022-11-23T10:44:32;7.70;;;5.78;;
68475;SDS011;55464;48.266;14.188;2022-11-23T10:47:02;6.50;;;5.53;;
68475;SDS011;55464;48.266;14.188;2022-11-23T10:49:32;7.22;;;5.53;;
68475;SDS011;55464;48.266;14.188;2022-11-23T10:57:01;4.93;;;4.40;;
68475;SDS011;55464;48.266;14.188;2022-11-23T10:59:44;5.05;;;4.40;;
68475;SDS011;55464;48.266;14.188;2022-11-23T11:02:57;5.65;;;4.20;;
68475;SDS011;55464;48.266;14.188;2022-11-23T11:05:31;6.28;;;4.30;;
68475;SDS011;55464;48.266;14.188;2022-11-23T11:08:02;5.97;;;3.92;;
68475;SDS011;55464;48.266;14.188;2022-11-23T11:16:04;6.57;;;4.20;;
68475;SDS011;55464;48.266;14.188;2022-11-23T11:18:39;9.90;;;4.68;;
68475;SDS011;55464;48.266;14.188;2022-11-23T11:21:17;7.72;;;4.80;;
68475;SDS011;55464;48.266;14.188;2022-11-23T11:24:04;6.95;;;4.85;;
68475;SDS011;55464;48.266;14.188;2022-11-23T11:26:38;7.47;;;4.65;;
68475;SDS011;55464;48.266;14.188;2022-11-23T11:35:26;6.80;;;4.63;;
68475;SDS011;55464;48.266;14.188;2022-11-23T11:38:01;6.35;;;4.20;;
68475;SDS011;55464;48.266;14.188;2022-11-23T11:43:17;5.43;;;4.47;;
68475;SDS011;55464;48.266;14.188;2022-11-23T11:45:55;7.70;;;5.45;;
68475;SDS011;55464;48.266;14.188;2022-11-23T11:48:41;9.45;;;4.57;;
68475;SDS011;55464;48.266;14.188;2022-11-23T11:51:35;5.60;;;3.70;;
68475;SDS011;55464;48.266;14.188;2022-11-23T11:54:12;7.55;;;4.20;;
68475;SDS011;55464;48.266;14.188;2022-11-23T11:56:41;7.00;;;4.07;;
68475;SDS011;55464;48.266;14.188;2022-11-23T11:59:33;7.78;;;4.35;;
68475;SDS011;55464;48.266;14.188;2022-11-23T12:10:37;6.13;;;4.55;;
68475;SDS011;55464;48.266;14.188;2022-11-23T12:24:24;5.45;;;3.33;;
68475;SDS011;55464;48.266;14.188;2022-11-23T12:36:14;7.20;;;3.65;;
68475;SDS011;55464;48.266;14.188;2022-11-23T12:58:21;5.03;;;3.05;;
68475;SDS011;55464;48.266;14.188;2022-11-23T13:07:34;4.30;;;2.60;;
68475;SDS011;55464;48.266;14.188;2022-11-23T13:13:23;2.72;;;2.42;;
68475;SDS011;55464;48.266;14.188;2022-11-23T13:22:16;5.30;;;3.72;;
68475;SDS011;55464;48.266;14.188;2022-11-23T13:31:16;11.10;;;7.53;;
68475;SDS011;55464;48.266;14.188;2022-11-23T13:33:49;9.70;;;7.13;;
68475;SDS011;55464;48.266;14.188;2022-11-23T13:36:38;11.80;;;6.03;;
68475;SDS011;55464;48.266;14.188;2022-11-23T13:42:07;4.90;;;2.88;;
68475;SDS011;55464;48.266;14.188;2022-11-23T13:44:39;3.22;;;2.70;;
68475;SDS011;55464;48.266;14.188;2022-11-23T13:47:14;3.08;;;1.98;;
68475;SDS011;55464;48.266;14.188;2022-11-23T13:49:44;2.42;;;1.88;;
68475;SDS011;55464;48.266;14.188;2022-11-23T13:52:27;2.78;;;1.42;;
68475;SDS011;55464;48.266;14.188;2022-11-23T13:57:39;3.72;;;1.60;;
68475;SDS011;55464;48.266;14.188;2022-11-23T14:06:24;3.93;;;2.27;;
68475;SDS011;55464;48.266;14.188;2022-11-23T14:08:53;4.25;;;2.40;;
68475;SDS011;55464;48.266;14.188;2022-11-23T14:11:27;4.35;;;2.55;;
68475;SDS011;55464;48.266;14.188;2022-11-23T14:14:00;3.28;;;2.60;;
68475;SDS011;55464;48.266;14.188;2022-11-23T14:16:37;3.42;;;2.20;;
68475;SDS011;55464;48.266;14.188;2022-11-23T14:19:30;5.63;;;2.30;;
68475;SDS011;55464;48.266;14.188;2022-11-23T14:22:05;4.70;;;3.03;;
68475;SDS011;55464;48.266;14.188;2022-11-23T14:35:11;3.65;;;2.45;;
68475;SDS011;55464;48.266;14.188;2022-11-23T14:43:41;6.20;;;2.97;;
68475;SDS011;55464;48.266;14.188;2022-11-23T14:46:16;3.47;;;2.78;;
68475;SDS011;55464;48.266;14.188;2022-11-23T14:48:49;3.03;;;2.38;;
68475;SDS011;55464;48.266;14.188;2022-11-23T14:54:06;4.95;;;2.78;;
68475;SDS011;55464;48.266;14.188;2022-11-23T14:56:36;4.82;;;2.60;;
68475;SDS011;55464;48.266;14.188;2022-11-23T14:59:35;3.80;;;2.60;;
68475;SDS011;55464;48.266;14.188;2022-11-23T15:02:24;5.72;;;2.90;;
68475;SDS011;55464;48.266;14.188;2022-11-23T15:05:13;3.47;;;2.17;;
68475;SDS011;55464;48.266;14.188;2022-11-23T15:08:32;5.05;;;2.97;;
68475;SDS011;55464;48.266;14.188;2022-11-23T15:11:24;4.57;;;2.30;;
68475;SDS011;55464;48.266;14.188;2022-11-23T15:13:53;4.43;;;2.50;;
68475;SDS011;55464;48.266;14.188;2022-11-23T15:16:21;3.70;;;2.63;;
68475;SDS011;55464;48.266;14.188;2022-11-23T15:18:47;3.72;;;2.40;;
68475;SDS011;55464;48.266;14.188;2022-11-23T15:21:21;4.30;;;2.70;;
68475;SDS011;55464;48.266;14.188;2022-11-23T15:23:52;5.72;;;2.50;;
68475;SDS011;55464;48.266;14.188;2022-11-23T15:26:29;3.03;;;2.63;;
68475;SDS011;55464;48.266;14.188;2022-11-23T15:29:03;3.80;;;2.67;;
68475;SDS011;55464;48.266;14.188;2022-11-23T15:31:59;6.88;;;3.50;;
68475;SDS011;55464;48.266;14.188;2022-11-23T15:34:26;3.97;;;2.67;;
68475;SDS011;55464;48.266;14.188;2022-11-23T15:36:53;5.25;;;3.63;;
68475;SDS011;55464;48.266;14.188;2022-11-23T15:39:20;5.10;;;3.70;;
68475;SDS011;55464;48.266;14.188;2022-11-23T15:41:50;4.90;;;3.70;;
68475;SDS011;55464;48.266;14.188;2022-11-23T15:44:23;5.07;;;3.38;;
68475;SDS011;55464;48.266;14.188;2022-11-23T15:46:58;3.75;;;3.00;;
68475;SDS011;55464;48.266;14.188;2022-11-23T15:49:26;4.50;;;3.47;;
68475;SDS011;55464;48.266;14.188;2022-11-23T15:51:52;4.97;;;3.40;;
68475;SDS011;55464;48.266;14.188;2022-11-23T15:54:25;7.55;;;3.55;;
68475;SDS011;55464;48.266;14.188;2022-11-23T15:57:17;5.88;;;3.97;;
68475;SDS011;55464;48.266;14.188;2022-11-23T15:59:47;5.90;;;4.10;;
68475;SDS011;55464;48.266;14.188;2022-11-23T16:02:22;6.07;;;3.65;;
68475;SDS011;55464;48.266;14.188;2022-11-23T16:07:56;8.25;;;4.10;;
68475;SDS011;55464;48.266;14.188;2022-11-23T16:10:24;5.30;;;4.18;;
68475;SDS011;55464;48.266;14.188;2022-11-23T16:13:01;4.53;;;3.65;;
68475;SDS011;55464;48.266;14.188;2022-11-23T16:20:44;6.15;;;4.07;;
68475;SDS011;55464;48.266;14.188;2022-11-23T16:23:40;7.85;;;4.60;;
68475;SDS011;55464;48.266;14.188;2022-11-23T16:26:09;8.00;;;4.65;;
68475;SDS011;55464;48.266;14.188;2022-11-23T16:28:36;8.75;;;5.05;;
68475;SDS011;55464;48.266;14.188;2022-11-23T16:31:04;7.18;;;4.90;;
68475;SDS011;55464;48.266;14.188;2022-11-23T16:33:30;7.55;;;4.85;;
68475;SDS011;55464;48.266;14.188;2022-11-23T16:36:06;15.32;;;5.57;;
68475;SDS011;55464;48.266;14.188;2022-11-23T16:38:31;12.02;;;7.72;;
68475;SDS011;55464;48.266;14.188;2022-11-23T16:40:58;23.58;;;12.18;;
68475;SDS011;55464;48.266;14.188;2022-11-23T16:43:24;22.20;;;12.43;;
68475;SDS011;55464;48.266;14.188;2022-11-23T16:45:53;31.75;;;17.42;;
68475;SDS011;55464;48.266;14.188;2022-11-23T16:50:50;53.42;;;27.20;;
68475;SDS011;55464;48.266;14.188;2022-11-23T16:53:18;41.10;;;21.05;;
68475;SDS011;55464;48.266;14.188;2022-11-23T16:55:45;32.78;;;16.52;;
68475;SDS011;55464;48.266;14.188;2022-11-23T16:58:17;29.92;;;17.40;;
68475;SDS011;55464;48.266;14.188;2022-11-23T17:00:44;35.03;;;19.20;;
68475;SDS011;55464;48.266;14.188;2022-11-23T17:03:13;33.90;;;18.33;;
68475;SDS011;55464;48.266;14.188;2022-11-23T17:05:40;27.20;;;15.75;;
68475;SDS011;55464;48.266;14.188;2022-11-23T17:08:05;30.23;;;16.13;;
68475;SDS011;55464;48.266;14.188;2022-11-23T17:10:31;30.25;;;17.40;;
68475;SDS011;55464;48.266;14.188;2022-11-23T17:13:02;23.30;;;14.10;;
68475;SDS011;55464;48.266;14.188;2022-11-23T17:15:31;19.55;;;11.82;;
68475;SDS011;55464;48.266;14.188;2022-11-23T17:17:56;19.65;;;11.57;;
68475;SDS011;55464;48.266;14.188;2022-11-23T17:20:25;19.02;;;11.05;;
68475;SDS011;55464;48.266;14.188;2022-11-23T17:22:51;19.13;;;11.30;;
68475;SDS011;55464;48.266;14.188;2022-11-23T17:25:26;16.88;;;10.07;;
68475;SDS011;55464;48.266;14.188;2022-11-23T17:27:52;17.83;;;10.55;;